createdAt,value
2017-03-11T00:00:40.599Z,927.16
2017-03-11T00:01:54.281Z,927.11
2017-03-11T00:03:07.398Z,927.14
2017-03-11T00:04:19.896Z,927.11
2017-03-11T00:05:33.648Z,927.11
2017-03-11T00:06:47.320Z,927.12
2017-03-11T00:08:00.418Z,927.15
2017-03-11T00:09:13.515Z,927.06
2017-03-11T00:10:27.246Z,927.09
2017-03-11T00:11:40.936Z,927.13
2017-03-11T00:12:54.624Z,927.12
2017-03-11T00:14:08.345Z,927.07
2017-03-11T00:15:22.086Z,926.99
2017-03-11T00:16:35.790Z,926.99
2017-03-11T00:17:48.875Z,926.97
2017-03-11T00:19:02.585Z,926.97
2017-03-11T00:20:15.705Z,926.96
2017-03-11T00:21:29.391Z,926.95
2017-03-11T00:22:43.049Z,926.88
2017-03-11T00:23:56.759Z,926.86
2017-03-11T00:25:10.473Z,926.8
2017-03-11T00:26:24.193Z,926.77
2017-03-11T00:27:37.917Z,926.77
2017-03-11T00:28:51.587Z,926.7
2017-03-11T00:30:05.275Z,926.72
2017-03-11T00:31:18.361Z,926.7
2017-03-11T00:32:32.123Z,926.68
2017-03-11T00:33:45.801Z,926.64
2017-03-11T00:34:58.917Z,926.62
2017-03-11T00:36:12.600Z,926.64
2017-03-11T00:37:26.325Z,926.63
2017-03-11T00:38:40.033Z,926.6
2017-03-11T00:39:53.734Z,926.62
2017-03-11T00:41:06.823Z,926.61
2017-03-11T00:42:20.512Z,926.62
2017-03-11T00:43:34.259Z,926.6
2017-03-11T00:44:47.363Z,926.61
2017-03-11T00:46:01.053Z,926.58
2017-03-11T00:47:14.786Z,926.57
2017-03-11T00:48:28.472Z,926.59
2017-03-11T00:49:42.217Z,926.56
2017-03-11T00:50:55.915Z,926.52
2017-03-11T00:52:09.603Z,926.44
2017-03-11T00:53:22.749Z,926.39
2017-03-11T00:54:36.461Z,926.33
2017-03-11T00:55:50.183Z,926.27
2017-03-11T00:57:03.904Z,926.25
2017-03-11T00:58:17.607Z,926.31
2017-03-11T00:59:30.230Z,926.27
2017-03-11T01:00:43.906Z,926.3
2017-03-11T01:01:57.008Z,926.32
2017-03-11T01:03:10.729Z,926.34
2017-03-11T01:04:24.451Z,926.38
2017-03-11T01:05:38.253Z,926.45
2017-03-11T01:06:52.003Z,926.43
2017-03-11T01:08:04.511Z,926.44
2017-03-11T01:09:17.777Z,926.46
2017-03-11T01:10:31.493Z,926.5
2017-03-11T01:11:43.991Z,926.58
2017-03-11T01:12:57.698Z,926.57
2017-03-11T01:14:11.421Z,926.57
2017-03-11T01:15:25.694Z,926.55
2017-03-11T01:16:39.399Z,926.5
2017-03-11T01:17:53.090Z,926.42
2017-03-11T01:19:06.908Z,926.38
2017-03-11T01:20:20.649Z,926.29
2017-03-11T01:21:34.720Z,926.24
2017-03-11T01:22:48.387Z,926.15
2017-03-11T01:24:02.100Z,926.09
2017-03-11T01:25:16.463Z,926
2017-03-11T01:26:29.623Z,925.93
2017-03-11T01:27:42.837Z,925.9
2017-03-11T01:28:56.533Z,925.86
2017-03-11T01:30:10.405Z,925.88
2017-03-11T01:31:24.690Z,925.84
2017-03-11T01:32:38.404Z,925.82
2017-03-11T01:33:52.099Z,925.76
2017-03-11T01:35:05.924Z,925.78
2017-03-11T01:36:18.465Z,925.74
2017-03-11T01:37:32.676Z,925.71
2017-03-11T01:38:46.361Z,925.74
2017-03-11T01:40:00.039Z,925.74
2017-03-11T01:41:13.402Z,925.72
2017-03-11T01:42:27.113Z,925.76
2017-03-11T01:43:40.906Z,925.77
2017-03-11T01:44:54.592Z,925.78
2017-03-11T01:46:08.354Z,925.81
2017-03-11T01:47:22.598Z,925.76
2017-03-11T01:48:35.743Z,925.74
2017-03-11T01:49:47.668Z,925.75
2017-03-11T01:51:01.372Z,925.8
2017-03-11T01:52:15.112Z,925.77
2017-03-11T01:53:29.352Z,925.74
2017-03-11T01:54:43.024Z,925.68
2017-03-11T01:55:56.721Z,925.67
2017-03-11T01:57:10.574Z,925.63
2017-03-11T01:58:24.310Z,925.67
2017-03-11T01:59:38.203Z,925.67
2017-03-11T02:00:51.940Z,925.66
2017-03-11T02:02:05.657Z,925.68
2017-03-11T02:03:18.600Z,925.67
2017-03-11T02:04:32.299Z,925.67
2017-03-11T02:05:46.036Z,925.7
2017-03-11T02:06:59.742Z,925.72
2017-03-11T02:08:13.490Z,925.74
2017-03-11T02:09:27.226Z,925.75
2017-03-11T02:10:40.940Z,925.74
2017-03-11T02:11:54.664Z,925.69
2017-03-11T02:13:08.101Z,925.69
2017-03-11T02:14:21.632Z,925.66
2017-03-11T02:15:35.863Z,925.63
2017-03-11T02:16:49.776Z,925.62
2017-03-11T02:18:03.962Z,925.64
2017-03-11T02:19:18.323Z,925.64
2017-03-11T02:20:32.385Z,925.65
2017-03-11T02:21:46.431Z,925.6
2017-03-11T02:23:00.340Z,925.61
2017-03-11T02:24:14.291Z,925.55
2017-03-11T02:25:28.087Z,925.56
2017-03-11T02:26:41.637Z,925.54
2017-03-11T02:27:55.966Z,925.57
2017-03-11T02:29:10.306Z,925.55
2017-03-11T02:30:24.657Z,925.51
2017-03-11T02:31:38.852Z,925.47
2017-03-11T02:32:52.568Z,925.48
2017-03-11T02:34:06.891Z,925.41
2017-03-11T02:35:21.311Z,925.4
2017-03-11T02:36:35.540Z,925.39
2017-03-11T02:37:49.566Z,925.38
2017-03-11T02:39:03.621Z,925.37
2017-03-11T02:40:17.297Z,925.41
2017-03-11T02:41:31.053Z,925.38
2017-03-11T02:42:44.616Z,925.33
2017-03-11T02:43:58.857Z,925.32
2017-03-11T02:45:13.249Z,925.29
2017-03-11T02:46:27.609Z,925.29
2017-03-11T02:47:41.207Z,925.22
2017-03-11T02:48:55.404Z,925.2
2017-03-11T02:50:09.743Z,925.19
2017-03-11T02:51:24.121Z,925.16
2017-03-11T02:52:37.793Z,925.12
2017-03-11T02:53:52.177Z,925.11
2017-03-11T02:55:05.870Z,925.15
2017-03-11T02:56:19.575Z,925.17
2017-03-11T02:57:33.924Z,925.17
2017-03-11T02:58:48.073Z,925.13
2017-03-11T03:00:02.194Z,925.11
2017-03-11T03:01:16.533Z,925.07
2017-03-11T03:02:30.277Z,925.05
2017-03-11T03:03:44.269Z,925.05
2017-03-11T03:04:57.730Z,925.05
2017-03-11T03:06:12.042Z,925.04
2017-03-11T03:07:25.785Z,925.05
2017-03-11T03:08:39.814Z,925.01
2017-03-11T03:09:54.001Z,925.05
2017-03-11T03:11:07.109Z,924.98
2017-03-11T03:12:21.454Z,924.96
2017-03-11T03:13:35.722Z,924.98
2017-03-11T03:14:50.129Z,924.98
2017-03-11T03:16:04.737Z,924.93
2017-03-11T03:17:19.107Z,924.88
2017-03-11T03:18:33.389Z,924.86
2017-03-11T03:19:47.744Z,924.86
2017-03-11T03:21:02.095Z,924.87
2017-03-11T03:22:16.459Z,924.81
2017-03-11T03:23:30.820Z,924.8
2017-03-11T03:24:45.181Z,924.82
2017-03-11T03:25:59.506Z,924.79
2017-03-11T03:27:13.909Z,924.8
2017-03-11T03:28:28.243Z,924.79
2017-03-11T03:29:42.510Z,924.78
2017-03-11T03:30:56.902Z,924.76
2017-03-11T03:32:11.283Z,924.73
2017-03-11T03:33:25.637Z,924.74
2017-03-11T03:34:39.994Z,924.72
2017-03-11T03:35:54.328Z,924.7
2017-03-11T03:37:08.684Z,924.68
2017-03-11T03:38:23.063Z,924.69
2017-03-11T03:39:36.712Z,924.68
2017-03-11T03:40:51.142Z,924.71
2017-03-11T03:42:05.561Z,924.71
2017-03-11T03:43:19.951Z,924.72
2017-03-11T03:44:33.597Z,924.7
2017-03-11T03:45:47.240Z,924.77
2017-03-11T03:47:01.050Z,924.68
2017-03-11T03:48:14.750Z,924.72
2017-03-11T03:49:29.297Z,924.69
2017-03-11T03:50:43.600Z,924.7
2017-03-11T03:51:57.879Z,924.69
2017-03-11T03:53:12.196Z,924.67
2017-03-11T03:54:25.298Z,924.68
2017-03-11T03:55:39.555Z,924.63
2017-03-11T03:56:53.854Z,924.64
2017-03-11T03:58:07.545Z,924.64
2017-03-11T03:59:20.628Z,924.63
2017-03-11T04:00:34.313Z,924.63
2017-03-11T04:01:47.890Z,924.63
2017-03-11T04:03:01.605Z,924.64
2017-03-11T04:04:15.960Z,924.6
2017-03-11T04:05:29.727Z,924.58
2017-03-11T04:06:43.291Z,924.52
2017-03-11T04:07:57.585Z,924.5
2017-03-11T04:09:11.254Z,924.49
2017-03-11T04:10:25.695Z,924.52
2017-03-11T04:11:39.950Z,924.54
2017-03-11T04:12:54.320Z,924.55
2017-03-11T04:14:08.716Z,924.48
2017-03-11T04:15:22.459Z,924.52
2017-03-11T04:16:36.118Z,924.56
2017-03-11T04:17:50.322Z,924.6
2017-03-11T04:19:04.661Z,924.6
2017-03-11T04:20:18.988Z,924.61
2017-03-11T04:21:33.288Z,924.65
2017-03-11T04:22:47.641Z,924.6
2017-03-11T04:24:01.977Z,924.65
2017-03-11T04:25:16.356Z,924.63
2017-03-11T04:26:30.079Z,924.64
2017-03-11T04:27:43.746Z,924.65
2017-03-11T04:28:58.147Z,924.64
2017-03-11T04:30:12.530Z,924.61
2017-03-11T04:31:26.986Z,924.62
2017-03-11T04:32:41.342Z,924.63
2017-03-11T04:33:55.759Z,924.64
2017-03-11T04:35:10.186Z,924.66
2017-03-11T04:36:24.511Z,924.63
2017-03-11T04:37:38.785Z,924.6
2017-03-11T04:38:53.109Z,924.62
2017-03-11T04:40:07.445Z,924.62
2017-03-11T04:41:21.165Z,924.65
2017-03-11T04:42:35.505Z,924.61
2017-03-11T04:43:49.885Z,924.68
2017-03-11T04:45:04.296Z,924.65
2017-03-11T04:46:17.953Z,924.68
2017-03-11T04:47:31.622Z,924.64
2017-03-11T04:48:46.016Z,924.69
2017-03-11T04:50:00.320Z,924.72
2017-03-11T04:51:12.739Z,924.65
2017-03-11T04:52:25.185Z,924.73
2017-03-11T04:53:39.418Z,924.75
2017-03-11T04:54:53.767Z,924.78
2017-03-11T04:56:07.989Z,924.75
2017-03-11T04:57:22.324Z,924.73
2017-03-11T04:58:36.681Z,924.71
2017-03-11T04:59:51.021Z,924.71
2017-03-11T05:01:05.344Z,924.72
2017-03-11T05:02:19.760Z,924.73
2017-03-11T05:03:34.137Z,924.76
2017-03-11T05:04:48.474Z,924.78
2017-03-11T05:06:02.747Z,924.74
2017-03-11T05:07:16.537Z,924.73
2017-03-11T05:08:30.673Z,924.72
2017-03-11T05:09:44.648Z,924.71
2017-03-11T05:10:58.555Z,924.66
2017-03-11T05:12:12.561Z,924.72
2017-03-11T05:13:26.900Z,924.64
2017-03-11T05:14:40.782Z,924.66
2017-03-11T05:15:54.652Z,924.64
2017-03-11T05:17:08.726Z,924.67
2017-03-11T05:18:22.630Z,924.63
2017-03-11T05:19:36.775Z,924.63
2017-03-11T05:20:49.848Z,924.62
2017-03-11T05:22:03.629Z,924.64
2017-03-11T05:23:17.959Z,924.66
2017-03-11T05:24:30.548Z,924.69
2017-03-11T05:25:44.309Z,924.68
2017-03-11T05:26:58.020Z,924.71
2017-03-11T05:28:11.165Z,924.66
2017-03-11T05:29:25.473Z,924.67
2017-03-11T05:30:39.163Z,924.7
2017-03-11T05:31:53.035Z,924.61
2017-03-11T05:33:06.996Z,924.61
2017-03-11T05:34:20.727Z,924.69
2017-03-11T05:35:34.939Z,924.68
2017-03-11T05:36:48.064Z,924.63
2017-03-11T05:38:01.789Z,924.66
2017-03-11T05:39:16.103Z,924.66
2017-03-11T05:40:29.246Z,924.66
2017-03-11T05:41:42.459Z,924.74
2017-03-11T05:42:55.557Z,924.71
2017-03-11T05:44:09.304Z,924.73
2017-03-11T05:45:23.489Z,924.69
2017-03-11T05:46:37.182Z,924.7
2017-03-11T05:47:50.882Z,924.71
2017-03-11T05:49:04.664Z,924.71
2017-03-11T05:50:17.813Z,924.71
2017-03-11T05:51:31.928Z,924.69
2017-03-11T05:52:45.656Z,924.68
2017-03-11T05:53:59.362Z,924.67
2017-03-11T05:55:13.282Z,924.66
2017-03-11T05:56:26.973Z,924.63
2017-03-11T05:57:40.120Z,924.65
2017-03-11T05:58:53.857Z,924.64
2017-03-11T06:00:07.639Z,924.56
2017-03-11T06:01:21.779Z,924.64
2017-03-11T06:02:35.483Z,924.6
2017-03-11T06:03:49.191Z,924.56
2017-03-11T06:05:02.895Z,924.58
2017-03-11T06:06:16.002Z,924.51
2017-03-11T06:07:29.287Z,924.57
2017-03-11T06:08:42.990Z,924.5
2017-03-11T06:09:56.657Z,924.49
2017-03-11T06:11:09.835Z,924.52
2017-03-11T06:12:23.594Z,924.47
2017-03-11T06:13:37.418Z,924.42
2017-03-11T06:14:51.135Z,924.5
2017-03-11T06:16:04.799Z,924.51
2017-03-11T06:17:18.584Z,924.51
2017-03-11T06:18:31.699Z,924.48
2017-03-11T06:19:45.375Z,924.53
2017-03-11T06:20:59.025Z,924.53
2017-03-11T06:22:12.707Z,924.51
2017-03-11T06:23:26.396Z,924.49
2017-03-11T06:24:39.475Z,924.52
2017-03-11T06:25:53.158Z,924.5
2017-03-11T06:27:06.861Z,924.53
2017-03-11T06:28:20.535Z,924.54
2017-03-11T06:29:34.232Z,924.52
2017-03-11T06:30:47.905Z,924.51
2017-03-11T06:32:01.617Z,924.5
2017-03-11T06:33:15.339Z,924.51
2017-03-11T06:34:29.052Z,924.48
2017-03-11T06:35:42.738Z,924.5
2017-03-11T06:36:56.481Z,924.55
2017-03-11T06:38:10.180Z,924.56
2017-03-11T06:39:23.940Z,924.54
2017-03-11T06:40:37.661Z,924.56
2017-03-11T06:41:51.335Z,924.55
2017-03-11T06:43:05.016Z,924.6
2017-03-11T06:44:18.711Z,924.57
2017-03-11T06:45:32.407Z,924.63
2017-03-11T06:46:46.106Z,924.56
2017-03-11T06:47:59.796Z,924.59
2017-03-11T06:49:13.479Z,924.6
2017-03-11T06:50:27.160Z,924.62
2017-03-11T06:51:40.851Z,924.6
2017-03-11T06:52:54.562Z,924.56
2017-03-11T06:54:08.237Z,924.6
2017-03-11T06:55:21.936Z,924.59
2017-03-11T06:56:35.664Z,924.63
2017-03-11T06:57:48.744Z,924.59
2017-03-11T06:59:02.458Z,924.63
2017-03-11T07:00:16.146Z,924.61
2017-03-11T07:01:29.849Z,924.62
2017-03-11T07:02:43.553Z,924.63
2017-03-11T07:03:57.233Z,924.65
2017-03-11T07:05:11.060Z,924.69
2017-03-11T07:06:24.144Z,924.69
2017-03-11T07:07:37.861Z,924.7
2017-03-11T07:08:51.573Z,924.76
2017-03-11T07:10:05.318Z,924.71
2017-03-11T07:11:19.051Z,924.67
2017-03-11T07:12:32.747Z,924.7
2017-03-11T07:13:46.427Z,924.66
2017-03-11T07:15:00.144Z,924.62
2017-03-11T07:16:13.834Z,924.57
2017-03-11T07:17:27.555Z,924.61
2017-03-11T07:18:40.651Z,924.58
2017-03-11T07:19:54.313Z,924.64
2017-03-11T07:21:07.415Z,924.65
2017-03-11T07:22:19.904Z,924.69
2017-03-11T07:23:33.596Z,924.67
2017-03-11T07:24:47.304Z,924.63
2017-03-11T07:26:00.999Z,924.65
2017-03-11T07:27:14.709Z,924.63
2017-03-11T07:28:28.431Z,924.68
2017-03-11T07:29:42.143Z,924.67
2017-03-11T07:30:55.835Z,924.65
2017-03-11T07:32:09.520Z,924.64
2017-03-11T07:33:23.226Z,924.68
2017-03-11T07:34:36.923Z,924.65
2017-03-11T07:35:50.033Z,924.71
2017-03-11T07:37:03.724Z,924.72
2017-03-11T07:38:17.417Z,924.76
2017-03-11T07:39:30.521Z,924.74
2017-03-11T07:40:43.603Z,924.77
2017-03-11T07:41:57.273Z,924.82
2017-03-11T07:43:10.398Z,924.85
2017-03-11T07:44:24.103Z,924.9
2017-03-11T07:45:37.799Z,924.87
2017-03-11T07:46:51.470Z,924.9
2017-03-11T07:48:05.171Z,924.92
2017-03-11T07:49:18.846Z,924.92
2017-03-11T07:50:32.525Z,924.94
2017-03-11T07:51:46.236Z,924.96
2017-03-11T07:52:59.921Z,924.97
2017-03-11T07:54:13.023Z,924.96
2017-03-11T07:55:26.698Z,925
2017-03-11T07:56:39.783Z,925.03
2017-03-11T07:57:53.461Z,925.07
2017-03-11T07:59:07.128Z,925.07
2017-03-11T08:00:20.226Z,925.05
2017-03-11T08:01:33.904Z,925.05
2017-03-11T08:02:47.627Z,925.1
2017-03-11T08:04:01.377Z,925.04
2017-03-11T08:05:15.097Z,925.1
2017-03-11T08:06:28.812Z,925.1
2017-03-11T08:07:42.513Z,925.08
2017-03-11T08:08:55.010Z,925.12
2017-03-11T08:10:08.769Z,925.1
2017-03-11T08:11:22.433Z,925.07
2017-03-11T08:12:36.133Z,925.1
2017-03-11T08:13:49.841Z,925.12
2017-03-11T08:15:03.520Z,925.1
2017-03-11T08:16:17.238Z,925.14
2017-03-11T08:17:30.925Z,925.19
2017-03-11T08:18:44.651Z,925.21
2017-03-11T08:19:58.348Z,925.27
2017-03-11T08:21:12.029Z,925.23
2017-03-11T08:22:25.812Z,925.23
2017-03-11T08:23:39.494Z,925.23
2017-03-11T08:24:53.170Z,925.27
2017-03-11T08:26:06.844Z,925.26
2017-03-11T08:27:19.923Z,925.27
2017-03-11T08:28:33.666Z,925.27
2017-03-11T08:29:47.408Z,925.29
2017-03-11T08:31:01.392Z,925.31
2017-03-11T08:32:15.068Z,925.32
2017-03-11T08:33:28.758Z,925.35
2017-03-11T08:34:42.488Z,925.37
2017-03-11T08:35:56.144Z,925.44
2017-03-11T08:37:09.276Z,925.43
2017-03-11T08:38:22.995Z,925.45
2017-03-11T08:39:36.697Z,925.48
2017-03-11T08:40:50.415Z,925.49
2017-03-11T08:42:04.115Z,925.51
2017-03-11T08:43:17.185Z,925.54
2017-03-11T08:44:30.871Z,925.54
2017-03-11T08:45:43.953Z,925.59
2017-03-11T08:46:57.643Z,925.57
2017-03-11T08:48:11.319Z,925.61
2017-03-11T08:49:24.992Z,925.65
2017-03-11T08:50:38.670Z,925.65
2017-03-11T08:51:51.747Z,925.64
2017-03-11T08:53:05.476Z,925.68
2017-03-11T08:54:19.242Z,925.68
2017-03-11T08:55:32.960Z,925.66
2017-03-11T08:56:46.641Z,925.69
2017-03-11T08:58:00.320Z,925.71
2017-03-11T08:59:13.982Z,925.7
2017-03-11T09:00:27.703Z,925.67
2017-03-11T09:01:41.401Z,925.67
2017-03-11T09:02:55.085Z,925.68
2017-03-11T09:04:08.782Z,925.69
2017-03-11T09:05:22.466Z,925.73
2017-03-11T09:06:36.158Z,925.72
2017-03-11T09:07:49.841Z,925.73
2017-03-11T09:09:03.543Z,925.72
2017-03-11T09:10:17.249Z,925.74
2017-03-11T09:11:30.947Z,925.73
2017-03-11T09:12:44.670Z,925.72
2017-03-11T09:13:58.363Z,925.79
2017-03-11T09:15:12.092Z,925.81
2017-03-11T09:16:25.849Z,925.85
2017-03-11T09:17:38.921Z,925.82
2017-03-11T09:18:52.628Z,925.84
2017-03-11T09:20:06.319Z,925.81
2017-03-11T09:21:20.031Z,925.82
2017-03-11T09:22:33.739Z,925.81
2017-03-11T09:23:46.241Z,925.81
2017-03-11T09:24:59.936Z,925.82
2017-03-11T09:26:13.626Z,925.84
2017-03-11T09:27:26.726Z,925.79
2017-03-11T09:28:40.414Z,925.87
2017-03-11T09:29:54.106Z,925.82
2017-03-11T09:31:07.814Z,925.83
2017-03-11T09:32:21.494Z,925.84
2017-03-11T09:33:34.565Z,925.83
2017-03-11T09:34:48.250Z,925.84
2017-03-11T09:36:01.944Z,925.84
2017-03-11T09:37:15.618Z,925.84
2017-03-11T09:38:29.312Z,925.87
2017-03-11T09:39:43.012Z,925.89
2017-03-11T09:40:56.692Z,925.85
2017-03-11T09:42:10.393Z,925.9
2017-03-11T09:43:23.500Z,925.89
2017-03-11T09:44:37.175Z,925.91
2017-03-11T09:45:50.869Z,925.89
2017-03-11T09:47:04.572Z,925.91
2017-03-11T09:48:18.277Z,925.95
2017-03-11T09:49:31.971Z,925.95
2017-03-11T09:50:45.708Z,925.95
2017-03-11T09:51:59.382Z,925.94
2017-03-11T09:53:12.466Z,925.99
2017-03-11T09:54:26.170Z,926.03
2017-03-11T09:55:39.885Z,926.03
2017-03-11T09:56:52.971Z,926.07
2017-03-11T09:58:06.110Z,926.08
2017-03-11T09:59:19.787Z,926.09
2017-03-11T10:00:33.480Z,926.12
2017-03-11T10:01:47.163Z,926.12
2017-03-11T10:03:00.858Z,926.12
2017-03-11T10:04:14.549Z,926.11
2017-03-11T10:05:28.267Z,926.15
2017-03-11T10:06:41.967Z,926.16
2017-03-11T10:07:55.672Z,926.18
2017-03-11T10:09:09.381Z,926.15
2017-03-11T10:10:23.087Z,926.16
2017-03-11T10:11:36.159Z,926.15
2017-03-11T10:12:49.260Z,926.16
2017-03-11T10:14:02.947Z,926.19
2017-03-11T10:15:16.641Z,926.19
2017-03-11T10:16:30.371Z,926.14
2017-03-11T10:17:42.901Z,926.15
2017-03-11T10:18:56.601Z,926.15
2017-03-11T10:20:10.325Z,926.22
2017-03-11T10:21:24.020Z,926.16
2017-03-11T10:22:37.144Z,926.19
2017-03-11T10:23:50.823Z,926.22
2017-03-11T10:25:04.516Z,926.25
2017-03-11T10:26:18.206Z,926.25
2017-03-11T10:27:31.888Z,926.3
2017-03-11T10:28:45.563Z,926.28
2017-03-11T10:29:59.251Z,926.34
2017-03-11T10:31:12.345Z,926.33
2017-03-11T10:32:25.461Z,926.33
2017-03-11T10:33:39.124Z,926.36
2017-03-11T10:34:52.880Z,926.35
2017-03-11T10:36:06.572Z,926.39
2017-03-11T10:37:20.267Z,926.4
2017-03-11T10:38:33.959Z,926.44
2017-03-11T10:39:47.653Z,926.43
2017-03-11T10:41:01.342Z,926.47
2017-03-11T10:42:14.464Z,926.49
2017-03-11T10:43:28.148Z,926.51
2017-03-11T10:44:41.834Z,926.54
2017-03-11T10:45:55.518Z,926.51
2017-03-11T10:47:08.583Z,926.51
2017-03-11T10:48:22.254Z,926.55
2017-03-11T10:49:35.975Z,926.59
2017-03-11T10:50:49.084Z,926.59
2017-03-11T10:52:02.771Z,926.62
2017-03-11T10:53:15.865Z,926.56
2017-03-11T10:54:29.548Z,926.56
2017-03-11T10:55:43.254Z,926.55
2017-03-11T10:56:56.951Z,926.51
2017-03-11T10:58:10.689Z,926.51
2017-03-11T10:59:24.363Z,926.51
2017-03-11T11:00:38.032Z,926.5
2017-03-11T11:01:51.728Z,926.48
2017-03-11T11:03:05.449Z,926.48
2017-03-11T11:04:19.133Z,926.47
2017-03-11T11:05:32.855Z,926.51
2017-03-11T11:06:46.550Z,926.54
2017-03-11T11:08:00.217Z,926.55
2017-03-11T11:09:13.906Z,926.55
2017-03-11T11:10:27.590Z,926.54
2017-03-11T11:11:41.277Z,926.56
2017-03-11T11:12:54.998Z,926.56
2017-03-11T11:14:08.668Z,926.63
2017-03-11T11:15:22.348Z,926.61
2017-03-11T11:16:36.062Z,926.69
2017-03-11T11:17:49.747Z,926.76
2017-03-11T11:19:03.451Z,926.8
2017-03-11T11:20:17.125Z,926.83
2017-03-11T11:21:30.821Z,926.82
2017-03-11T11:22:44.520Z,926.91
2017-03-11T11:23:58.203Z,926.91
2017-03-11T11:25:11.873Z,926.93
2017-03-11T11:26:25.557Z,926.95
2017-03-11T11:27:38.689Z,926.87
2017-03-11T11:28:52.385Z,926.88
2017-03-11T11:30:06.095Z,926.83
2017-03-11T11:31:19.775Z,926.86
2017-03-11T11:32:32.894Z,926.84
2017-03-11T11:33:46.599Z,926.81
2017-03-11T11:35:00.307Z,926.86
2017-03-11T11:36:14.000Z,926.87
2017-03-11T11:37:27.137Z,926.87
2017-03-11T11:38:40.829Z,926.86
2017-03-11T11:39:54.500Z,926.86
2017-03-11T11:41:08.207Z,926.91
2017-03-11T11:42:21.945Z,926.89
2017-03-11T11:43:35.639Z,926.91
2017-03-11T11:44:49.312Z,926.97
2017-03-11T11:46:02.432Z,926.96
2017-03-11T11:47:15.514Z,927.04
2017-03-11T11:48:28.625Z,927.02
2017-03-11T11:49:42.333Z,927.03
2017-03-11T11:50:56.083Z,927.04
2017-03-11T11:52:09.782Z,927.02
2017-03-11T11:53:23.482Z,927.07
2017-03-11T11:54:37.195Z,927.07
2017-03-11T11:55:50.924Z,927.02
2017-03-11T11:57:04.633Z,927.05
2017-03-11T11:58:18.392Z,927.04
2017-03-11T11:59:32.101Z,927.04
2017-03-11T12:00:45.218Z,927.06
2017-03-11T12:01:58.935Z,927.04
2017-03-11T12:03:12.653Z,927.06
2017-03-11T12:04:25.770Z,927.01
2017-03-11T12:05:39.433Z,927
2017-03-11T12:06:52.547Z,926.95
2017-03-11T12:08:06.238Z,926.95
2017-03-11T12:09:19.961Z,926.93
2017-03-11T12:10:33.663Z,926.91
2017-03-11T12:11:47.411Z,926.95
2017-03-11T12:13:01.145Z,926.97
2017-03-11T12:14:14.885Z,927.01
2017-03-11T12:15:28.564Z,927.02
2017-03-11T12:16:42.276Z,927.08
2017-03-11T12:17:55.984Z,927.09
2017-03-11T12:19:09.074Z,927.12
2017-03-11T12:20:22.220Z,927.1
2017-03-11T12:21:35.985Z,927.06
2017-03-11T12:22:49.679Z,927.05
2017-03-11T12:24:02.201Z,927.06
2017-03-11T12:25:15.888Z,927.07
2017-03-11T12:26:29.597Z,927.1
2017-03-11T12:27:42.703Z,927.04
2017-03-11T12:28:55.201Z,927.06
2017-03-11T12:30:08.934Z,927.06
2017-03-11T12:31:22.623Z,927.05
2017-03-11T12:32:36.328Z,927.04
2017-03-11T12:33:49.473Z,927.07
2017-03-11T12:35:03.171Z,927.14
2017-03-11T12:36:16.264Z,927.11
2017-03-11T12:37:29.364Z,927.14
2017-03-11T12:38:43.074Z,927.17
2017-03-11T12:39:56.820Z,927.16
2017-03-11T12:41:10.561Z,927.21
2017-03-11T12:42:24.265Z,927.21
2017-03-11T12:43:37.976Z,927.28
2017-03-11T12:44:51.672Z,927.25
2017-03-11T12:46:05.383Z,927.3
2017-03-11T13:19:35.534Z,927.22
2017-03-11T13:20:49.240Z,927.27
2017-03-11T13:22:02.959Z,927.18
2017-03-11T13:23:16.705Z,927.14
2017-03-11T13:24:30.403Z,927.19
2017-03-11T13:25:44.104Z,927.23
2017-03-11T13:26:57.803Z,927.2
2017-03-11T13:28:11.534Z,927.22
2017-03-11T13:29:24.640Z,927.18
2017-03-11T13:30:38.314Z,927.16
2017-03-11T13:31:51.992Z,927.15
2017-03-11T13:33:05.095Z,927.18
2017-03-11T13:34:18.813Z,927.23
2017-03-11T13:35:31.952Z,927.2
2017-03-11T13:36:45.677Z,927.3
2017-03-11T13:37:59.384Z,927.29
2017-03-11T13:39:13.116Z,927.31
2017-03-11T13:40:26.830Z,927.33
2017-03-11T13:41:40.539Z,927.35
2017-03-11T13:42:54.284Z,927.35
2017-03-11T13:44:08.021Z,927.32
2017-03-11T13:45:21.766Z,927.33
2017-03-11T13:46:34.865Z,927.34
2017-03-11T13:47:47.991Z,927.33
2017-03-11T13:49:01.710Z,927.34
2017-03-11T13:50:15.402Z,927.28
2017-03-11T13:51:29.137Z,927.24
2017-03-11T13:52:42.844Z,927.34
2017-03-11T13:53:56.548Z,927.29
2017-03-11T13:55:10.277Z,927.32
2017-03-11T13:56:24.022Z,927.32
2017-03-11T13:57:37.776Z,927.24
2017-03-11T13:58:51.482Z,927.31
2017-03-11T14:00:05.230Z,927.3
2017-03-11T14:01:18.929Z,927.27
2017-03-11T14:02:32.646Z,927.24
2017-03-11T14:03:46.389Z,927.2
2017-03-11T14:05:00.090Z,927.2
2017-03-11T14:06:13.819Z,927.18
2017-03-11T14:07:27.526Z,927.18
2017-03-11T14:08:41.248Z,927.2
2017-03-11T14:09:54.979Z,927.13
2017-03-11T14:11:07.493Z,927.17
2017-03-11T14:12:20.578Z,927.11
2017-03-11T14:13:34.317Z,927.12
2017-03-11T14:14:48.046Z,927.11
2017-03-11T14:16:01.146Z,927.05
2017-03-11T14:17:14.854Z,927.05
2017-03-11T14:18:28.586Z,926.98
2017-03-11T14:19:42.293Z,927.03
2017-03-11T14:20:56.009Z,927.03
2017-03-11T14:22:09.719Z,927.07
2017-03-11T14:23:23.473Z,927.03
2017-03-11T14:24:37.180Z,927.01
2017-03-11T14:25:50.299Z,926.99
2017-03-11T14:27:04.022Z,926.99
2017-03-11T14:28:17.192Z,926.96
2017-03-11T14:29:30.925Z,926.97
2017-03-11T14:30:44.021Z,927
2017-03-11T14:31:57.134Z,926.99
2017-03-11T14:33:11.018Z,927.01
2017-03-11T14:34:24.749Z,926.97
2017-03-11T14:35:38.474Z,926.97
2017-03-11T14:36:51.591Z,926.96
2017-03-11T14:38:05.365Z,926.94
2017-03-11T14:39:19.083Z,926.94
2017-03-11T14:40:32.782Z,926.89
2017-03-11T14:41:46.477Z,926.9
2017-03-11T14:43:00.241Z,926.87
2017-03-11T14:44:13.943Z,926.88
2017-03-11T14:45:27.024Z,926.84
2017-03-11T14:46:40.119Z,926.85
2017-03-11T14:47:53.836Z,926.85
2017-03-11T14:49:07.533Z,926.86
2017-03-11T14:50:21.247Z,926.83
2017-03-11T14:51:35.055Z,926.85
2017-03-11T14:52:49.142Z,926.79
2017-03-11T14:54:02.862Z,926.78
2017-03-11T14:55:16.589Z,926.81
2017-03-11T14:56:30.281Z,926.83
2017-03-11T14:57:43.431Z,926.77
2017-03-11T14:58:57.169Z,926.74
2017-03-11T15:00:10.883Z,926.73
2017-03-11T15:01:24.038Z,926.67
2017-03-11T15:02:37.734Z,926.67
2017-03-11T15:03:51.511Z,926.68
2017-03-11T15:05:05.236Z,926.66
2017-03-11T15:06:18.953Z,926.68
2017-03-11T15:07:32.691Z,926.65
2017-03-11T15:08:46.384Z,926.66
2017-03-11T15:10:00.100Z,926.64
2017-03-11T15:11:12.644Z,926.65
2017-03-11T15:12:25.775Z,926.61
2017-03-11T15:13:38.937Z,926.6
2017-03-11T15:14:51.522Z,926.53
2017-03-11T15:16:05.233Z,926.62
2017-03-11T15:17:18.921Z,926.6
2017-03-11T15:18:32.053Z,926.57
2017-03-11T15:19:45.809Z,926.56
2017-03-11T15:20:59.502Z,926.59
2017-03-11T15:22:13.230Z,926.53
2017-03-11T15:23:26.944Z,926.55
2017-03-11T15:24:40.651Z,926.54
2017-03-11T15:25:54.370Z,926.52
2017-03-11T15:27:08.086Z,926.5
2017-03-11T15:28:21.824Z,926.48
2017-03-11T15:29:34.343Z,926.46
2017-03-11T15:30:48.042Z,926.5
2017-03-11T15:32:01.154Z,926.43
2017-03-11T15:33:14.852Z,926.41
2017-03-11T15:34:28.567Z,926.4
2017-03-11T15:35:41.661Z,926.35
2017-03-11T15:36:55.362Z,926.34
2017-03-11T15:38:09.104Z,926.3
2017-03-11T15:39:22.850Z,926.32
2017-03-11T15:40:36.535Z,926.3
2017-03-11T15:41:50.217Z,926.3
2017-03-11T15:43:03.966Z,926.3
2017-03-11T15:44:17.699Z,926.23
2017-03-11T15:45:31.399Z,926.26
2017-03-11T15:46:45.104Z,926.28
2017-03-11T15:47:58.785Z,926.25
2017-03-11T15:49:11.952Z,926.23
2017-03-11T15:50:24.500Z,926.26
2017-03-11T15:51:38.234Z,926.21
2017-03-11T15:52:51.944Z,926.2
2017-03-11T15:54:05.647Z,926.16
2017-03-11T15:55:18.890Z,926.1